sensor_id;sensor_type;location;lat;lon;timestamp;pressure;altitude;pressure_sealevel;temperature;humidity
80164;BME280;70071;55.130;61.268;2024-03-08T00:02:03;98161.19;;;-2.68;32.05
80164;BME280;70071;55.130;61.268;2024-03-08T00:04:29;98169.34;;;-2.73;32.78
80164;BME280;70071;55.130;61.268;2024-03-08T00:06:55;98177.03;;;-2.71;32.47
80164;BME280;70071;55.130;61.268;2024-03-08T00:09:21;98161.94;;;-3.11;32.96
80164;BME280;70071;55.130;61.268;2024-03-08T00:11:47;98151.22;;;-3.29;33.60
80164;BME280;70071;55.130;61.268;2024-03-08T00:14:16;98190.38;;;-3.21;33.93
80164;BME280;70071;55.130;61.268;2024-03-08T00:16:42;98130.53;;;-3.65;34.18
80164;BME280;70071;55.130;61.268;2024-03-08T00:19:09;98172.22;;;-3.32;34.19
80164;BME280;70071;55.130;61.268;2024-03-08T00:21:35;98134.81;;;-3.07;33.56
80164;BME280;70071;55.130;61.268;2024-03-08T00:24:01;98167.69;;;-2.74;33.23
80164;BME280;70071;55.130;61.268;2024-03-08T00:26:27;98143.47;;;-2.63;32.87
80164;BME280;70071;55.130;61.268;2024-03-08T00:28:55;98130.28;;;-2.71;33.01
80164;BME280;70071;55.130;61.268;2024-03-08T00:31:21;98131.72;;;-3.01;32.77
80164;BME280;70071;55.130;61.268;2024-03-08T00:33:47;98119.91;;;-2.82;32.74
80164;BME280;70071;55.130;61.268;2024-03-08T00:36:13;98125.53;;;-2.55;32.64
80164;BME280;70071;55.130;61.268;2024-03-08T00:38:39;98128.00;;;-2.53;32.62
80164;BME280;70071;55.130;61.268;2024-03-08T00:41:05;98096.53;;;-2.82;32.85
80164;BME280;70071;55.130;61.268;2024-03-08T00:43:31;98120.09;;;-2.52;32.62
80164;BME280;70071;55.130;61.268;2024-03-08T00:45:57;98103.81;;;-2.65;32.60
80164;BME280;70071;55.130;61.268;2024-03-08T00:48:23;98129.34;;;-2.81;32.85
80164;BME280;70071;55.130;61.268;2024-03-08T00:50:50;98117.53;;;-2.86;32.65
80164;BME280;70071;55.130;61.268;2024-03-08T00:53:16;98106.03;;;-3.27;33.45
80164;BME280;70071;55.130;61.268;2024-03-08T00:55:42;98113.00;;;-3.27;33.67
80164;BME280;70071;55.130;61.268;2024-03-08T00:58:12;98147.81;;;-3.18;33.29
80164;BME280;70071;55.130;61.268;2024-03-08T01:00:38;98145.19;;;-3.30;34.16
80164;BME280;70071;55.130;61.268;2024-03-08T01:03:05;98110.63;;;-3.19;33.71
80164;BME280;70071;55.130;61.268;2024-03-08T01:05:31;98131.00;;;-2.92;33.01
80164;BME280;70071;55.130;61.268;2024-03-08T01:07:56;98116.31;;;-2.59;32.60
80164;BME280;70071;55.130;61.268;2024-03-08T01:10:22;98089.78;;;-2.74;32.22
80164;BME280;70071;55.130;61.268;2024-03-08T01:12:48;98071.72;;;-3.19;33.32
80164;BME280;70071;55.130;61.268;2024-03-08T01:15:15;98107.03;;;-2.84;32.97
80164;BME280;70071;55.130;61.268;2024-03-08T01:17:41;98125.97;;;-3.27;33.67
80164;BME280;70071;55.130;61.268;2024-03-08T01:20:09;98114.41;;;-3.57;33.78
80164;BME280;70071;55.130;61.268;2024-03-08T01:22:38;98130.44;;;-3.52;34.53
80164;BME280;70071;55.130;61.268;2024-03-08T01:25:05;98094.00;;;-3.62;34.16
80164;BME280;70071;55.130;61.268;2024-03-08T01:27:31;98074.31;;;-3.42;34.03
80164;BME280;70071;55.130;61.268;2024-03-08T01:29:57;98093.31;;;-3.64;34.72
80164;BME280;70071;55.130;61.268;2024-03-08T01:32:25;98103.53;;;-3.06;33.68
80164;BME280;70071;55.130;61.268;2024-03-08T01:34:51;98109.00;;;-3.31;34.40
80164;BME280;70071;55.130;61.268;2024-03-08T01:37:16;98103.34;;;-3.36;33.71
80164;BME280;70071;55.130;61.268;2024-03-08T01:39:42;98106.50;;;-3.10;33.87
80164;BME280;70071;55.130;61.268;2024-03-08T01:42:08;98070.53;;;-3.04;33.63
80164;BME280;70071;55.130;61.268;2024-03-08T01:44:36;98084.44;;;-3.16;34.28
80164;BME280;70071;55.130;61.268;2024-03-08T01:47:03;98075.97;;;-3.07;33.53
80164;BME280;70071;55.130;61.268;2024-03-08T01:49:29;98066.34;;;-2.95;33.36
80164;BME280;70071;55.130;61.268;2024-03-08T01:51:55;98064.38;;;-2.59;32.80
80164;BME280;70071;55.130;61.268;2024-03-08T01:54:22;98096.91;;;-2.87;33.10
80164;BME280;70071;55.130;61.268;2024-03-08T01:56:49;98047.53;;;-3.19;33.64
80164;BME280;70071;55.130;61.268;2024-03-08T01:59:15;98052.72;;;-3.08;33.28
80164;BME280;70071;55.130;61.268;2024-03-08T02:01:42;98055.97;;;-2.83;33.25
80164;BME280;70071;55.130;61.268;2024-03-08T02:04:09;98075.44;;;-2.89;32.98
80164;BME280;70071;55.130;61.268;2024-03-08T02:06:35;98053.88;;;-3.01;33.10
80164;BME280;70071;55.130;61.268;2024-03-08T02:09:02;98087.38;;;-2.87;33.92
80164;BME280;70071;55.130;61.268;2024-03-08T02:11:33;98066.91;;;-2.80;33.28
80164;BME280;70071;55.130;61.268;2024-03-08T02:13:59;98058.19;;;-3.68;34.28
80164;BME280;70071;55.130;61.268;2024-03-08T02:16:25;98071.63;;;-3.29;34.07
80164;BME280;70071;55.130;61.268;2024-03-08T02:18:51;98056.97;;;-3.30;33.77
80164;BME280;70071;55.130;61.268;2024-03-08T02:21:18;98071.84;;;-3.32;33.92
80164;BME280;70071;55.130;61.268;2024-03-08T02:23:44;98079.28;;;-3.27;34.40
80164;BME280;70071;55.130;61.268;2024-03-08T02:26:10;98064.97;;;-3.10;34.06
80164;BME280;70071;55.130;61.268;2024-03-08T02:28:37;98077.34;;;-3.03;33.82
80164;BME280;70071;55.130;61.268;2024-03-08T02:31:05;98036.88;;;-2.94;33.46
80164;BME280;70071;55.130;61.268;2024-03-08T02:33:34;98047.41;;;-2.42;32.73
80164;BME280;70071;55.130;61.268;2024-03-08T02:36:00;98042.00;;;-2.82;32.74
80164;BME280;70071;55.130;61.268;2024-03-08T02:38:26;98046.28;;;-2.81;32.92
80164;BME280;70071;55.130;61.268;2024-03-08T02:40:54;98063.59;;;-2.71;33.22
80164;BME280;70071;55.130;61.268;2024-03-08T02:43:21;98062.78;;;-2.82;33.31
80164;BME280;70071;55.130;61.268;2024-03-08T02:45:51;98068.81;;;-2.50;32.81
80164;BME280;70071;55.130;61.268;2024-03-08T02:48:20;98047.03;;;-2.37;32.78
80164;BME280;70071;55.130;61.268;2024-03-08T02:50:47;98072.53;;;-1.89;32.57
80164;BME280;70071;55.130;61.268;2024-03-08T02:53:13;98067.72;;;-2.15;32.20
80164;BME280;70071;55.130;61.268;2024-03-08T02:55:40;98059.91;;;-2.15;31.80
80164;BME280;70071;55.130;61.268;2024-03-08T02:58:07;98023.13;;;-2.52;32.29
80164;BME280;70071;55.130;61.268;2024-03-08T03:00:37;98065.09;;;-2.15;32.13
80164;BME280;70071;55.130;61.268;2024-03-08T03:03:07;98052.81;;;-2.34;32.11
80164;BME280;70071;55.130;61.268;2024-03-08T03:05:33;98049.53;;;-2.68;32.58
80164;BME280;70071;55.130;61.268;2024-03-08T03:08:01;98049.84;;;-2.94;33.07
80164;BME280;70071;55.130;61.268;2024-03-08T03:10:29;98057.34;;;-2.79;33.04
80164;BME280;70071;55.130;61.268;2024-03-08T03:12:55;98076.50;;;-2.92;33.67
80164;BME280;70071;55.130;61.268;2024-03-08T03:15:21;98042.34;;;-3.08;33.59
80164;BME280;70071;55.130;61.268;2024-03-08T03:17:49;98022.44;;;-3.30;33.61
80164;BME280;70071;55.130;61.268;2024-03-08T03:20:17;98065.25;;;-3.36;34.40
80164;BME280;70071;55.130;61.268;2024-03-08T03:22:49;98047.38;;;-2.95;33.48
80164;BME280;70071;55.130;61.268;2024-03-08T03:25:19;98045.38;;;-3.03;33.64
80164;BME280;70071;55.130;61.268;2024-03-08T03:27:52;98060.16;;;-3.15;33.73
80164;BME280;70071;55.130;61.268;2024-03-08T03:30:18;98080.19;;;-2.94;33.41
80164;BME280;70071;55.130;61.268;2024-03-08T03:32:51;98083.34;;;-2.91;33.95
80164;BME280;70071;55.130;61.268;2024-03-08T03:35:18;98078.59;;;-2.86;33.68
80164;BME280;70071;55.130;61.268;2024-03-08T03:37:46;98047.53;;;-3.19;33.71
80164;BME280;70071;55.130;61.268;2024-03-08T03:40:31;98067.72;;;-2.79;33.48
80164;BME280;70071;55.130;61.268;2024-03-08T03:42:58;98046.69;;;-3.09;33.48
80164;BME280;70071;55.130;61.268;2024-03-08T03:45:24;98081.63;;;-2.69;33.22
80164;BME280;70071;55.130;61.268;2024-03-08T03:47:50;98065.31;;;-2.60;33.00
80164;BME280;70071;55.130;61.268;2024-03-08T03:50:18;98059.63;;;-2.54;33.28
80164;BME280;70071;55.130;61.268;2024-03-08T03:52:46;98061.75;;;-2.26;32.59
80164;BME280;70071;55.130;61.268;2024-03-08T03:55:13;98019.31;;;-2.69;33.07
80164;BME280;70071;55.130;61.268;2024-03-08T03:57:39;98041.91;;;-2.27;32.58
80164;BME280;70071;55.130;61.268;2024-03-08T04:00:07;98057.75;;;-2.30;32.61
80164;BME280;70071;55.130;61.268;2024-03-08T04:02:39;98061.47;;;-2.23;32.57
80164;BME280;70071;55.130;61.268;2024-03-08T04:05:06;98032.91;;;-2.44;32.83
80164;BME280;70071;55.130;61.268;2024-03-08T04:07:34;98064.22;;;-2.25;32.69
80164;BME280;70071;55.130;61.268;2024-03-08T04:10:03;98074.75;;;-2.05;32.18
80164;BME280;70071;55.130;61.268;2024-03-08T04:12:32;98059.72;;;-2.23;32.73
80164;BME280;70071;55.130;61.268;2024-03-08T04:14:58;98064.16;;;-2.13;32.86
80164;BME280;70071;55.130;61.268;2024-03-08T04:17:24;98058.09;;;-1.72;32.01
80164;BME280;70071;55.130;61.268;2024-03-08T04:19:51;98037.28;;;-1.72;32.15
80164;BME280;70071;55.130;61.268;2024-03-08T04:22:17;98018.13;;;-1.71;31.61
80164;BME280;70071;55.130;61.268;2024-03-08T04:24:46;98056.63;;;-1.65;32.39
80164;BME280;70071;55.130;61.268;2024-03-08T04:27:13;98050.63;;;-1.65;31.78
80164;BME280;70071;55.130;61.268;2024-03-08T04:29:40;98049.13;;;-1.17;31.82
80164;BME280;70071;55.130;61.268;2024-03-08T04:32:07;98045.84;;;-1.10;31.75
80164;BME280;70071;55.130;61.268;2024-03-08T04:34:34;98031.50;;;-0.94;31.20
80164;BME280;70071;55.130;61.268;2024-03-08T04:37:01;98026.03;;;-0.81;30.65
80164;BME280;70071;55.130;61.268;2024-03-08T04:39:28;97982.00;;;-1.23;31.35
80164;BME280;70071;55.130;61.268;2024-03-08T04:41:57;98049.50;;;-0.52;30.41
80164;BME280;70071;55.130;61.268;2024-03-08T04:44:25;98022.88;;;-0.75;30.31
80164;BME280;70071;55.130;61.268;2024-03-08T04:46:51;98020.16;;;-0.74;30.23
80164;BME280;70071;55.130;61.268;2024-03-08T04:49:17;98040.59;;;-1.29;31.26
80164;BME280;70071;55.130;61.268;2024-03-08T04:51:46;98047.28;;;-0.86;31.02
80164;BME280;70071;55.130;61.268;2024-03-08T04:54:12;98017.22;;;-1.19;30.63
80164;BME280;70071;55.130;61.268;2024-03-08T04:56:38;98006.44;;;-0.95;30.76
80164;BME280;70071;55.130;61.268;2024-03-08T04:59:04;98016.47;;;-1.41;31.38
80164;BME280;70071;55.130;61.268;2024-03-08T05:01:34;97984.53;;;-1.43;31.24
80164;BME280;70071;55.130;61.268;2024-03-08T05:04:04;98000.69;;;-1.49;32.26
80164;BME280;70071;55.130;61.268;2024-03-08T05:06:31;98038.75;;;-1.08;31.93
80164;BME280;70071;55.130;61.268;2024-03-08T05:08:57;98010.16;;;-0.88;31.12
80164;BME280;70071;55.130;61.268;2024-03-08T05:11:23;98007.09;;;-0.64;31.07
80164;BME280;70071;55.130;61.268;2024-03-08T05:13:49;98003.66;;;-1.13;31.06
80164;BME280;70071;55.130;61.268;2024-03-08T05:16:15;97995.88;;;-0.64;31.21
80164;BME280;70071;55.130;61.268;2024-03-08T05:18:41;98016.84;;;-0.46;31.21
80164;BME280;70071;55.130;61.268;2024-03-08T05:21:08;98031.53;;;-0.55;31.28
80164;BME280;70071;55.130;61.268;2024-03-08T05:23:35;97991.06;;;-0.49;30.68
80164;BME280;70071;55.130;61.268;2024-03-08T05:26:01;98024.91;;;-0.20;31.55
80164;BME280;70071;55.130;61.268;2024-03-08T05:28:27;98030.84;;;-0.47;31.11
80164;BME280;70071;55.130;61.268;2024-03-08T05:30:53;98002.78;;;0.04;31.01
80164;BME280;70071;55.130;61.268;2024-03-08T05:33:22;98022.16;;;0.39;30.02
80164;BME280;70071;55.130;61.268;2024-03-08T05:35:49;98006.84;;;0.53;29.71
80164;BME280;70071;55.130;61.268;2024-03-08T05:38:15;97996.22;;;-0.20;30.34
80164;BME280;70071;55.130;61.268;2024-03-08T05:40:41;98010.19;;;-0.02;30.75
80164;BME280;70071;55.130;61.268;2024-03-08T05:43:09;97929.75;;;-0.44;30.94
80164;BME280;70071;55.130;61.268;2024-03-08T05:45:35;97970.94;;;0.00;30.75
80164;BME280;70071;55.130;61.268;2024-03-08T05:48:01;97987.66;;;0.45;30.52
80164;BME280;70071;55.130;61.268;2024-03-08T05:50:27;97972.56;;;0.01;31.02
80164;BME280;70071;55.130;61.268;2024-03-08T05:52:53;98020.72;;;0.54;30.91
80164;BME280;70071;55.130;61.268;2024-03-08T05:55:19;97973.53;;;0.65;29.92
80164;BME280;70071;55.130;61.268;2024-03-08T05:57:46;97973.53;;;0.83;30.12
80164;BME280;70071;55.130;61.268;2024-03-08T06:00:13;98000.75;;;1.63;29.87
80164;BME280;70071;55.130;61.268;2024-03-08T06:02:41;97968.13;;;1.75;29.27
80164;BME280;70071;55.130;61.268;2024-03-08T06:05:09;97972.28;;;1.86;29.28
80164;BME280;70071;55.130;61.268;2024-03-08T06:07:37;97935.56;;;2.30;28.41
80164;BME280;70071;55.130;61.268;2024-03-08T06:10:08;97960.75;;;2.82;27.46
80164;BME280;70071;55.130;61.268;2024-03-08T06:12:36;97987.00;;;3.07;27.22
80164;BME280;70071;55.130;61.268;2024-03-08T06:15:08;97963.78;;;3.28;27.36
80164;BME280;70071;55.130;61.268;2024-03-08T06:17:40;97979.97;;;2.56;27.29
80164;BME280;70071;55.130;61.268;2024-03-08T06:20:07;97924.69;;;2.17;28.10
80164;BME280;70071;55.130;61.268;2024-03-08T06:22:40;97943.25;;;1.97;28.44
80164;BME280;70071;55.130;61.268;2024-03-08T06:25:10;97968.06;;;2.19;28.80
80164;BME280;70071;55.130;61.268;2024-03-08T06:27:40;97937.63;;;1.39;29.61
80164;BME280;70071;55.130;61.268;2024-03-08T06:30:08;97935.25;;;1.46;29.42
80164;BME280;70071;55.130;61.268;2024-03-08T06:32:36;97930.50;;;1.23;30.26
80164;BME280;70071;55.130;61.268;2024-03-08T06:35:06;97971.84;;;0.92;31.12
80164;BME280;70071;55.130;61.268;2024-03-08T06:37:33;97913.84;;;-0.03;31.82
80164;BME280;70071;55.130;61.268;2024-03-08T06:40:00;97935.44;;;1.09;31.62
80164;BME280;70071;55.130;61.268;2024-03-08T06:42:27;97949.38;;;1.80;30.22
80164;BME280;70071;55.130;61.268;2024-03-08T06:44:54;97944.06;;;1.45;29.86
80164;BME280;70071;55.130;61.268;2024-03-08T06:47:22;97956.53;;;1.51;30.40
80164;BME280;70071;55.130;61.268;2024-03-08T06:49:51;97933.72;;;1.17;30.80
80164;BME280;70071;55.130;61.268;2024-03-08T06:52:18;97923.00;;;1.29;30.92
80164;BME280;70071;55.130;61.268;2024-03-08T06:54:44;97944.22;;;2.30;29.52
80164;BME280;70071;55.130;61.268;2024-03-08T06:57:10;97943.69;;;2.70;29.27
80164;BME280;70071;55.130;61.268;2024-03-08T06:59:36;97951.66;;;1.56;30.49
80164;BME280;70071;55.130;61.268;2024-03-08T07:02:02;97917.16;;;1.53;30.61
80164;BME280;70071;55.130;61.268;2024-03-08T07:04:30;97915.44;;;1.70;30.23
80164;BME280;70071;55.130;61.268;2024-03-08T07:06:57;97883.31;;;1.25;30.81
80164;BME280;70071;55.130;61.268;2024-03-08T07:09:24;97903.34;;;1.42;31.09
80164;BME280;70071;55.130;61.268;2024-03-08T07:11:52;97896.69;;;1.48;30.67
80164;BME280;70071;55.130;61.268;2024-03-08T07:14:23;97919.19;;;1.41;30.76
80164;BME280;70071;55.130;61.268;2024-03-08T07:16:50;97931.59;;;1.39;31.26
80164;BME280;70071;55.130;61.268;2024-03-08T07:19:17;97858.03;;;1.60;30.43
80164;BME280;70071;55.130;61.268;2024-03-08T07:21:43;97891.03;;;2.22;30.49
80164;BME280;70071;55.130;61.268;2024-03-08T07:24:11;97914.41;;;2.74;30.25
80164;BME280;70071;55.130;61.268;2024-03-08T07:26:43;97898.06;;;3.22;28.91
80164;BME280;70071;55.130;61.268;2024-03-08T07:29:09;97904.28;;;3.37;28.20
80164;BME280;70071;55.130;61.268;2024-03-08T07:31:35;97902.81;;;3.10;28.96
80164;BME280;70071;55.130;61.268;2024-03-08T07:34:07;97886.25;;;3.34;29.27
80164;BME280;70071;55.130;61.268;2024-03-08T07:36:34;97898.38;;;3.35;29.07
80164;BME280;70071;55.130;61.268;2024-03-08T07:39:02;97895.31;;;3.96;28.21
80164;BME280;70071;55.130;61.268;2024-03-08T07:41:31;97883.00;;;3.07;28.63
80164;BME280;70071;55.130;61.268;2024-03-08T07:43:57;97890.47;;;2.53;30.12
80164;BME280;70071;55.130;61.268;2024-03-08T07:46:23;97883.81;;;3.24;29.47
80164;BME280;70071;55.130;61.268;2024-03-08T07:48:49;97889.53;;;2.87;29.90
80164;BME280;70071;55.130;61.268;2024-03-08T07:51:18;97846.22;;;2.25;30.60
80164;BME280;70071;55.130;61.268;2024-03-08T07:53:44;97870.38;;;3.27;29.10
80164;BME280;70071;55.130;61.268;2024-03-08T07:56:10;97876.97;;;3.87;29.16
80164;BME280;70071;55.130;61.268;2024-03-08T07:58:39;97888.31;;;4.59;28.28
80164;BME280;70071;55.130;61.268;2024-03-08T08:01:06;97858.13;;;3.84;29.05
80164;BME280;70071;55.130;61.268;2024-03-08T08:03:32;97864.25;;;1.93;31.45
80164;BME280;70071;55.130;61.268;2024-03-08T08:05:59;97888.88;;;2.93;31.86
80164;BME280;70071;55.130;61.268;2024-03-08T08:08:25;97852.59;;;2.22;31.96
80164;BME280;70071;55.130;61.268;2024-03-08T08:10:52;97842.69;;;3.16;30.28
80164;BME280;70071;55.130;61.268;2024-03-08T08:13:18;97821.72;;;3.08;31.02
80164;BME280;70071;55.130;61.268;2024-03-08T08:15:44;97850.34;;;3.51;31.46
80164;BME280;70071;55.130;61.268;2024-03-08T08:18:10;97853.03;;;2.93;31.68
80164;BME280;70071;55.130;61.268;2024-03-08T08:23:20;97862.81;;;2.66;32.53
80164;BME280;70071;55.130;61.268;2024-03-08T08:25:46;97863.81;;;2.82;32.07
80164;BME280;70071;55.130;61.268;2024-03-08T08:28:18;97870.19;;;2.63;32.63
80164;BME280;70071;55.130;61.268;2024-03-08T08:30:45;97870.00;;;2.56;33.22
80164;BME280;70071;55.130;61.268;2024-03-08T08:33:11;97860.69;;;2.70;32.67
80164;BME280;70071;55.130;61.268;2024-03-08T08:35:37;97837.34;;;2.18;33.32
80164;BME280;70071;55.130;61.268;2024-03-08T08:38:06;97833.03;;;1.92;33.66
80164;BME280;70071;55.130;61.268;2024-03-08T08:40:34;97857.13;;;1.43;34.63
80164;BME280;70071;55.130;61.268;2024-03-08T08:43:02;97866.38;;;1.11;35.13
80164;BME280;70071;55.130;61.268;2024-03-08T08:45:30;97854.81;;;2.01;34.38
80164;BME280;70071;55.130;61.268;2024-03-08T08:47:56;97825.94;;;2.27;33.29
80164;BME280;70071;55.130;61.268;2024-03-08T08:50:26;97852.47;;;2.40;32.81
80164;BME280;70071;55.130;61.268;2024-03-08T08:52:54;97825.59;;;2.30;33.13
80164;BME280;70071;55.130;61.268;2024-03-08T08:55:21;97841.88;;;1.99;33.75
80164;BME280;70071;55.130;61.268;2024-03-08T08:57:53;97790.78;;;2.62;32.82
80164;BME280;70071;55.130;61.268;2024-03-08T09:00:20;97817.75;;;2.38;32.76
80164;BME280;70071;55.130;61.268;2024-03-08T09:02:47;97838.97;;;3.67;31.58
80164;BME280;70071;55.130;61.268;2024-03-08T09:05:16;97823.44;;;4.83;29.60
80164;BME280;70071;55.130;61.268;2024-03-08T09:07:43;97834.88;;;4.43;29.84
80164;BME280;70071;55.130;61.268;2024-03-08T09:10:13;97847.22;;;5.27;29.08
80164;BME280;70071;55.130;61.268;2024-03-08T09:12:40;97850.84;;;4.34;29.58
80164;BME280;70071;55.130;61.268;2024-03-08T09:15:07;97834.81;;;4.52;29.26
80164;BME280;70071;55.130;61.268;2024-03-08T09:17:39;97827.00;;;3.72;30.73
80164;BME280;70071;55.130;61.268;2024-03-08T09:20:09;97828.97;;;4.41;29.96
80164;BME280;70071;55.130;61.268;2024-03-08T09:22:44;97822.28;;;4.85;29.30
80164;BME280;70071;55.130;61.268;2024-03-08T09:25:11;97844.22;;;4.92;28.76
80164;BME280;70071;55.130;61.268;2024-03-08T09:27:37;97812.75;;;4.61;28.89
80164;BME280;70071;55.130;61.268;2024-03-08T09:30:05;97816.31;;;4.91;28.91
80164;BME280;70071;55.130;61.268;2024-03-08T09:32:32;97815.72;;;4.35;28.81
80164;BME280;70071;55.130;61.268;2024-03-08T09:34:58;97810.75;;;3.69;30.43
80164;BME280;70071;55.130;61.268;2024-03-08T09:37:26;97811.41;;;4.42;28.61
80164;BME280;70071;55.130;61.268;2024-03-08T09:39:52;97825.94;;;5.52;28.00
80164;BME280;70071;55.130;61.268;2024-03-08T09:42:18;97816.25;;;5.97;27.09
80164;BME280;70071;55.130;61.268;2024-03-08T09:44:45;97819.47;;;5.40;27.68
80164;BME280;70071;55.130;61.268;2024-03-08T09:47:13;97817.94;;;5.90;27.13
80164;BME280;70071;55.130;61.268;2024-03-08T09:49:39;97793.41;;;4.54;27.86
80164;BME280;70071;55.130;61.268;2024-03-08T09:52:07;97804.38;;;5.04;28.22
80164;BME280;70071;55.130;61.268;2024-03-08T09:54:34;97811.97;;;5.51;27.12
80164;BME280;70071;55.130;61.268;2024-03-08T09:57:00;97806.47;;;5.08;28.40
80164;BME280;70071;55.130;61.268;2024-03-08T09:59:29;97817.56;;;3.95;29.53
80164;BME280;70071;55.130;61.268;2024-03-08T10:02:01;97810.47;;;4.35;28.57
80164;BME280;70071;55.130;61.268;2024-03-08T10:04:31;97799.13;;;3.71;29.86
80164;BME280;70071;55.130;61.268;2024-03-08T10:06:58;97817.59;;;3.86;29.82
80164;BME280;70071;55.130;61.268;2024-03-08T10:09:25;97809.38;;;5.13;28.18
80164;BME280;70071;55.130;61.268;2024-03-08T10:11:56;97832.63;;;4.63;28.28
80164;BME280;70071;55.130;61.268;2024-03-08T10:14:27;97816.13;;;3.36;30.22
80164;BME280;70071;55.130;61.268;2024-03-08T10:16:54;97784.81;;;3.82;30.07
80164;BME280;70071;55.130;61.268;2024-03-08T10:19:20;97778.94;;;4.81;27.67
80164;BME280;70071;55.130;61.268;2024-03-08T10:21:51;97824.75;;;5.84;27.19
80164;BME280;70071;55.130;61.268;2024-03-08T10:24:25;97805.38;;;5.18;27.47
80164;BME280;70071;55.130;61.268;2024-03-08T10:26:59;97791.97;;;4.74;27.34
80164;BME280;70071;55.130;61.268;2024-03-08T10:29:26;97777.91;;;5.20;27.14
80164;BME280;70071;55.130;61.268;2024-03-08T10:31:54;97802.44;;;5.50;27.05
80164;BME280;70071;55.130;61.268;2024-03-08T10:34:23;97807.41;;;5.90;26.53
80164;BME280;70071;55.130;61.268;2024-03-08T10:36:52;97775.28;;;5.20;26.68
80164;BME280;70071;55.130;61.268;2024-03-08T10:39:23;97795.34;;;5.81;26.29
80164;BME280;70071;55.130;61.268;2024-03-08T10:41:56;97803.13;;;6.40;26.22
80164;BME280;70071;55.130;61.268;2024-03-08T10:44:49;97808.88;;;6.08;25.28
80164;BME280;70071;55.130;61.268;2024-03-08T10:47:27;97788.84;;;4.94;26.81
80164;BME280;70071;55.130;61.268;2024-03-08T10:50:20;97834.09;;;7.81;24.24
80164;BME280;70071;55.130;61.268;2024-03-08T10:52:51;97816.84;;;8.41;22.70
80164;BME280;70071;55.130;61.268;2024-03-08T10:55:19;97787.97;;;8.39;22.24
80164;BME280;70071;55.130;61.268;2024-03-08T10:57:46;97818.56;;;9.49;22.01
80164;BME280;70071;55.130;61.268;2024-03-08T11:00:15;97822.25;;;10.26;21.67
80164;BME280;70071;55.130;61.268;2024-03-08T11:02:45;97793.94;;;10.59;20.89
80164;BME280;70071;55.130;61.268;2024-03-08T11:05:43;97797.28;;;11.05;20.12
80164;BME280;70071;55.130;61.268;2024-03-08T11:11:00;97800.94;;;11.72;18.64
80164;BME280;70071;55.130;61.268;2024-03-08T11:16:11;97818.28;;;12.31;18.30
80164;BME280;70071;55.130;61.268;2024-03-08T11:18:47;97843.44;;;12.16;18.47
80164;BME280;70071;55.130;61.268;2024-03-08T11:21:13;97798.06;;;11.74;18.57
80164;BME280;70071;55.130;61.268;2024-03-08T11:23:41;97824.69;;;12.41;18.44
80164;BME280;70071;55.130;61.268;2024-03-08T11:26:20;97783.19;;;12.94;17.97
80164;BME280;70071;55.130;61.268;2024-03-08T11:28:46;97795.56;;;12.77;17.55
80164;BME280;70071;55.130;61.268;2024-03-08T11:33:41;97798.91;;;12.72;18.30
80164;BME280;70071;55.130;61.268;2024-03-08T11:36:13;97775.41;;;12.39;17.75
80164;BME280;70071;55.130;61.268;2024-03-08T11:38:48;97748.75;;;12.57;17.84
80164;BME280;70071;55.130;61.268;2024-03-08T11:41:20;97763.19;;;13.15;17.68
80164;BME280;70071;55.130;61.268;2024-03-08T11:43:47;97771.66;;;14.12;16.93
80164;BME280;70071;55.130;61.268;2024-03-08T11:46:15;97801.97;;;14.92;16.23
80164;BME280;70071;55.130;61.268;2024-03-08T11:48:42;97703.06;;;14.70;16.62
80164;BME280;70071;55.130;61.268;2024-03-08T11:51:11;97801.63;;;15.40;15.83
80164;BME280;70071;55.130;61.268;2024-03-08T11:53:38;97801.47;;;15.30;15.62
80164;BME280;70071;55.130;61.268;2024-03-08T11:56:08;97792.09;;;15.83;16.23
80164;BME280;70071;55.130;61.268;2024-03-08T11:58:35;97794.25;;;15.86;15.04
80164;BME280;70071;55.130;61.268;2024-03-08T12:01:05;97805.75;;;15.48;15.34
80164;BME280;70071;55.130;61.268;2024-03-08T12:03:41;97801.03;;;15.38;14.98
80164;BME280;70071;55.130;61.268;2024-03-08T12:06:10;97806.41;;;14.87;15.72
80164;BME280;70071;55.130;61.268;2024-03-08T12:08:38;97790.50;;;15.48;15.13
80164;BME280;70071;55.130;61.268;2024-03-08T12:11:04;97771.44;;;15.22;15.32
80164;BME280;70071;55.130;61.268;2024-03-08T12:13:31;97778.28;;;15.74;15.33
80164;BME280;70071;55.130;61.268;2024-03-08T12:15:58;97784.53;;;16.24;14.66
80164;BME280;70071;55.130;61.268;2024-03-08T12:18:25;97793.81;;;16.66;14.60
80164;BME280;70071;55.130;61.268;2024-03-08T12:20:54;97765.13;;;16.34;14.29
80164;BME280;70071;55.130;61.268;2024-03-08T12:23:29;97732.97;;;15.62;14.37
80164;BME280;70071;55.130;61.268;2024-03-08T12:25:55;97760.06;;;16.92;14.49
80164;BME280;70071;55.130;61.268;2024-03-08T12:28:22;97753.50;;;16.23;14.14
80164;BME280;70071;55.130;61.268;2024-03-08T12:30:50;97803.47;;;16.17;14.03
80164;BME280;70071;55.130;61.268;2024-03-08T12:33:21;97769.44;;;16.13;14.16
80164;BME280;70071;55.130;61.268;2024-03-08T12:35:54;97781.22;;;16.89;13.87
80164;BME280;70071;55.130;61.268;2024-03-08T12:38:21;97787.81;;;16.81;13.94
80164;BME280;70071;55.130;61.268;2024-03-08T12:40:59;97770.38;;;16.78;13.62
80164;BME280;70071;55.130;61.268;2024-03-08T12:43:25;97780.34;;;16.33;13.90
80164;BME280;70071;55.130;61.268;2024-03-08T12:45:51;97743.81;;;16.77;14.10
80164;BME280;70071;55.130;61.268;2024-03-08T12:48:18;97760.69;;;16.77;14.04
80164;BME280;70071;55.130;61.268;2024-03-08T12:50:46;97740.25;;;16.93;13.80
80164;BME280;70071;55.130;61.268;2024-03-08T12:53:14;97750.75;;;16.73;13.68
80164;BME280;70071;55.130;61.268;2024-03-08T12:55:40;97776.97;;;13.60;15.89
80164;BME280;70071;55.130;61.268;2024-03-08T12:58:06;97750.94;;;12.49;16.95
80164;BME280;70071;55.130;61.268;2024-03-08T13:00:35;97777.91;;;11.48;17.83
80164;BME280;70071;55.130;61.268;2024-03-08T13:03:08;97732.22;;;11.20;17.71
80164;BME280;70071;55.130;61.268;2024-03-08T13:05:37;97745.41;;;10.52;18.80
80164;BME280;70071;55.130;61.268;2024-03-08T13:08:06;97708.13;;;10.97;17.75
80164;BME280;70071;55.130;61.268;2024-03-08T13:10:39;97757.63;;;10.14;18.82